Pays
Station

 

Conditions  météo  pour  Kirkenes Lufthavn  -  Norvège    Norvège

  
9 °C
    
 
 

METAR pour Kirkenes Lufthavn :

ENKR 200150Z AUTO 34009KT 9999 R06/P2000N R24///// FEW004/// BKN070/// 09/08 Q0991 RMK WIND 731FT 01014KT

 

Voici le bulletin pour Kirkenes Lufthavn - Norvège.
 
Le bulletin a été fait il y a 13 minutes, à 01:50 UTC .
Le vent soufflait à la vitesse de 4.6 mètres par seconde de Nord/Nord-ouest (340°).
 
La température était de 9 °C, avec un point de rosée à 8 °C.
La pression atmosphérique était de 991 hPa.
L'humidité relative était de 93.4%.
 
La visibilité globale était de supérieure à 10 kilomètres.
 
La visibilité était de 2000 mètres sans tendance distinctive pour la piste 06.

 
 
 

Pays :   A   B   C   D   E   F   G   H   I   J   K   L   M   N   O   P   Q   R   S   T   U   V   W   Y   Z

 

Partenaires :  Info Météo avec Met'info
Météo Marine avec MeteoMarine.net
Infos Site  |  Infos Légales  |  Crédits  |  Confidentialité
Contactez-nous  |  Ajouter aux favoris
© 2013-2018 METAR - Tous droits réservés